Terminal Aerodrome Forecast
Issued by NWS

Current Version | Previous Version | Text Only | Print | Product List | Glossary On
Versions: 1 2 3 4 5 6 7 8 9 10 11 12 13 14 15 16 17 18 19 20 21 22 23 24 25 26 27 28 29 30 31 32 33 34 35 36
000
FTUS43 KGRB 252300
TAFRHI
TAF
KRHI 252335Z 2600/2624 21010G15KT P6SM BKN015 BKN100
     FM260600 23004KT 3SM BR SCT008 OVC013
     FM260900 27003KT 1SM BR OVC007
     FM261400 29008KT P6SM BKN015
     FM261700 28008KT P6SM SCT030=

USA.gov is the U.S. government's official web portal to all federal, state and local government web resources and services.